sensor_id;sensor_type;location;lat;lon;timestamp;pressure;altitude;pressure_sealevel;temperature;humidity
46045;BME280;31781;54.094;13.428;2023-09-19T00:00:58;100415.72;;;20.69;68.49
46045;BME280;31781;54.094;13.428;2023-09-19T00:03:00;100413.25;;;20.67;68.62
46045;BME280;31781;54.094;13.428;2023-09-19T00:05:02;100417.41;;;20.65;68.76
46045;BME280;31781;54.094;13.428;2023-09-19T00:07:04;100416.84;;;20.63;68.78
46045;BME280;31781;54.094;13.428;2023-09-19T00:09:06;100404.16;;;20.62;68.67
46045;BME280;31781;54.094;13.428;2023-09-19T00:11:08;100415.47;;;20.60;68.83
46045;BME280;31781;54.094;13.428;2023-09-19T00:13:10;100407.75;;;20.57;68.98
46045;BME280;31781;54.094;13.428;2023-09-19T00:15:13;100409.69;;;20.57;69.19
46045;BME280;31781;54.094;13.428;2023-09-19T00:17:16;100407.19;;;20.55;69.03
46045;BME280;31781;54.094;13.428;2023-09-19T00:19:18;100411.38;;;20.53;69.29
46045;BME280;31781;54.094;13.428;2023-09-19T00:21:20;100406.09;;;20.51;69.55
46045;BME280;31781;54.094;13.428;2023-09-19T00:23:22;100406.41;;;20.50;69.01
46045;BME280;31781;54.094;13.428;2023-09-19T00:25:24;100414.13;;;20.48;69.23
46045;BME280;31781;54.094;13.428;2023-09-19T00:27:26;100416.38;;;20.46;69.39
46045;BME280;31781;54.094;13.428;2023-09-19T00:29:28;100411.94;;;20.45;69.21
46045;BME280;31781;54.094;13.428;2023-09-19T00:31:30;100408.34;;;20.44;69.20
46045;BME280;31781;54.094;13.428;2023-09-19T00:33:33;100402.28;;;20.42;69.53
46045;BME280;31781;54.094;13.428;2023-09-19T00:35:35;100404.50;;;20.40;69.92
46045;BME280;31781;54.094;13.428;2023-09-19T00:37:37;100402.88;;;20.39;70.00
46045;BME280;31781;54.094;13.428;2023-09-19T00:39:39;100406.72;;;20.38;69.29
46045;BME280;31781;54.094;13.428;2023-09-19T00:41:41;100405.06;;;20.37;69.72
46045;BME280;31781;54.094;13.428;2023-09-19T00:43:43;100398.69;;;20.36;70.07
46045;BME280;31781;54.094;13.428;2023-09-19T00:45:47;100397.34;;;20.34;69.90
46045;BME280;31781;54.094;13.428;2023-09-19T00:47:50;100396.50;;;20.33;70.08
46045;BME280;31781;54.094;13.428;2023-09-19T00:49:54;100405.09;;;20.32;69.68
46045;BME280;31781;54.094;13.428;2023-09-19T00:51:57;100406.19;;;20.31;69.31
46045;BME280;31781;54.094;13.428;2023-09-19T00:53:59;100408.13;;;20.30;69.76
46045;BME280;31781;54.094;13.428;2023-09-19T00:56:02;100405.38;;;20.30;69.83
46045;BME280;31781;54.094;13.428;2023-09-19T00:58:05;100405.63;;;20.29;69.72
46045;BME280;31781;54.094;13.428;2023-09-19T01:00:09;100401.25;;;20.28;69.60
46045;BME280;31781;54.094;13.428;2023-09-19T01:02:12;100402.31;;;20.27;69.54
46045;BME280;31781;54.094;13.428;2023-09-19T01:04:15;100405.34;;;20.25;69.83
46045;BME280;31781;54.094;13.428;2023-09-19T01:06:18;100402.03;;;20.23;69.49
46045;BME280;31781;54.094;13.428;2023-09-19T01:08:22;100395.69;;;20.23;69.65
46045;BME280;31781;54.094;13.428;2023-09-19T01:10:25;100395.69;;;20.23;69.50
46045;BME280;31781;54.094;13.428;2023-09-19T01:12:30;100394.84;;;20.22;69.60
46045;BME280;31781;54.094;13.428;2023-09-19T01:14:38;100391.56;;;20.20;69.02
46045;BME280;31781;54.094;13.428;2023-09-19T01:16:49;100387.97;;;20.20;68.79
46045;BME280;31781;54.094;13.428;2023-09-19T01:19:04;100389.91;;;20.19;68.42
46045;BME280;31781;54.094;13.428;2023-09-19T01:21:15;100391.31;;;20.17;68.92
46045;BME280;31781;54.094;13.428;2023-09-19T01:23:29;100385.22;;;20.15;68.74
46045;BME280;31781;54.094;13.428;2023-09-19T01:26:06;100391.56;;;20.15;67.71
46045;BME280;31781;54.094;13.428;2023-09-19T01:28:29;100390.19;;;20.13;68.40
46045;BME280;31781;54.094;13.428;2023-09-19T01:30:39;100387.19;;;20.09;69.37
46045;BME280;31781;54.094;13.428;2023-09-19T01:32:42;100389.38;;;20.07;69.24
46045;BME280;31781;54.094;13.428;2023-09-19T01:34:46;100376.13;;;20.04;69.74
46045;BME280;31781;54.094;13.428;2023-09-19T01:36:48;100385.50;;;20.03;69.81
46045;BME280;31781;54.094;13.428;2023-09-19T01:38:50;100383.06;;;20.02;69.96
46045;BME280;31781;54.094;13.428;2023-09-19T01:41:11;100394.09;;;20.02;68.21
46045;BME280;31781;54.094;13.428;2023-09-19T01:43:20;100396.28;;;20.00;69.53
46045;BME280;31781;54.094;13.428;2023-09-19T01:45:29;100391.06;;;19.98;69.30
46045;BME280;31781;54.094;13.428;2023-09-19T01:47:42;100384.97;;;19.96;69.35
46045;BME280;31781;54.094;13.428;2023-09-19T01:49:55;100389.97;;;19.94;68.98
46045;BME280;31781;54.094;13.428;2023-09-19T01:52:04;100388.31;;;19.93;68.96
46045;BME280;31781;54.094;13.428;2023-09-19T01:54:09;100392.47;;;19.90;69.27
46045;BME280;31781;54.094;13.428;2023-09-19T01:56:28;100388.88;;;19.90;68.63
46045;BME280;31781;54.094;13.428;2023-09-19T01:58:35;100390.53;;;19.86;68.79
46045;BME280;31781;54.094;13.428;2023-09-19T02:00:41;100391.63;;;19.85;68.21
46045;BME280;31781;54.094;13.428;2023-09-19T02:02:47;100398.28;;;19.84;68.01
46045;BME280;31781;54.094;13.428;2023-09-19T02:04:49;100395.25;;;19.80;68.31
46045;BME280;31781;54.094;13.428;2023-09-19T02:06:52;100396.34;;;19.79;68.85
46045;BME280;31781;54.094;13.428;2023-09-19T02:08:55;100400.22;;;19.78;68.47
46045;BME280;31781;54.094;13.428;2023-09-19T02:10:57;100396.91;;;19.76;68.89
46045;BME280;31781;54.094;13.428;2023-09-19T02:12:59;100399.66;;;19.76;68.90
46045;BME280;31781;54.094;13.428;2023-09-19T02:15:01;100399.94;;;19.75;68.83
46045;BME280;31781;54.094;13.428;2023-09-19T02:17:03;100399.41;;;19.73;68.15
46045;BME280;31781;54.094;13.428;2023-09-19T02:19:07;100405.19;;;19.71;68.07
46045;BME280;31781;54.094;13.428;2023-09-19T02:21:09;100405.19;;;19.71;68.35
46045;BME280;31781;54.094;13.428;2023-09-19T02:23:11;100406.28;;;19.70;68.05
46045;BME280;31781;54.094;13.428;2023-09-19T02:25:13;100406.28;;;19.70;67.54
46045;BME280;31781;54.094;13.428;2023-09-19T02:27:15;100403.53;;;19.70;67.60
46045;BME280;31781;54.094;13.428;2023-09-19T02:29:17;100398.84;;;19.71;67.18
46045;BME280;31781;54.094;13.428;2023-09-19T02:31:19;100401.06;;;19.69;67.35
46045;BME280;31781;54.094;13.428;2023-09-19T02:33:22;100409.03;;;19.70;67.16
46045;BME280;31781;54.094;13.428;2023-09-19T02:35:25;100408.22;;;19.70;67.33
46045;BME280;31781;54.094;13.428;2023-09-19T02:37:27;100397.16;;;19.70;67.19
46045;BME280;31781;54.094;13.428;2023-09-19T02:39:29;100408.22;;;19.70;66.97
46045;BME280;31781;54.094;13.428;2023-09-19T02:41:30;100405.75;;;19.68;66.99
46045;BME280;31781;54.094;13.428;2023-09-19T02:43:32;100419.25;;;19.70;66.86
46045;BME280;31781;54.094;13.428;2023-09-19T02:45:34;100413.72;;;19.70;67.02
46045;BME280;31781;54.094;13.428;2023-09-19T02:47:36;100417.31;;;19.70;67.27
46045;BME280;31781;54.094;13.428;2023-09-19T02:49:38;100423.97;;;19.69;66.64
46045;BME280;31781;54.094;13.428;2023-09-19T02:51:41;100416.78;;;19.68;66.57
46045;BME280;31781;54.094;13.428;2023-09-19T02:53:43;100419.53;;;19.68;66.08
46045;BME280;31781;54.094;13.428;2023-09-19T02:55:46;100414.84;;;19.69;66.62
46045;BME280;31781;54.094;13.428;2023-09-19T02:57:48;100425.06;;;19.68;66.17
46045;BME280;31781;54.094;13.428;2023-09-19T02:59:51;100419.81;;;19.67;65.75
46045;BME280;31781;54.094;13.428;2023-09-19T03:01:53;100408.78;;;19.67;65.64
46045;BME280;31781;54.094;13.428;2023-09-19T03:03:55;100417.06;;;19.67;65.50
46045;BME280;31781;54.094;13.428;2023-09-19T03:05:57;100427.25;;;19.66;66.05
46045;BME280;31781;54.094;13.428;2023-09-19T03:08:01;100408.22;;;19.65;65.09
46045;BME280;31781;54.094;13.428;2023-09-19T03:10:04;100403.81;;;19.64;64.94
46045;BME280;31781;54.094;13.428;2023-09-19T03:12:06;100403.81;;;19.64;64.49
46045;BME280;31781;54.094;13.428;2023-09-19T03:14:10;100399.38;;;19.63;64.82
46045;BME280;31781;54.094;13.428;2023-09-19T03:16:12;100409.06;;;19.60;64.69
46045;BME280;31781;54.094;13.428;2023-09-19T03:18:14;100419.25;;;19.60;64.62
46045;BME280;31781;54.094;13.428;2023-09-19T03:20:16;100417.06;;;19.57;64.60
46045;BME280;31781;54.094;13.428;2023-09-19T03:22:19;100433.88;;;19.55;64.23
46045;BME280;31781;54.094;13.428;2023-09-19T03:24:22;100425.06;;;19.53;64.06
46045;BME280;31781;54.094;13.428;2023-09-19T03:26:26;100434.16;;;19.49;64.39
46045;BME280;31781;54.094;13.428;2023-09-19T03:28:28;100435.25;;;19.48;64.15
46045;BME280;31781;54.094;13.428;2023-09-19T03:30:30;100436.66;;;19.45;64.54
46045;BME280;31781;54.094;13.428;2023-09-19T03:32:32;100436.09;;;19.43;64.64
46045;BME280;31781;54.094;13.428;2023-09-19T03:34:35;100433.88;;;19.40;64.49
46045;BME280;31781;54.094;13.428;2023-09-19T03:36:37;100436.06;;;19.38;64.80
46045;BME280;31781;54.094;13.428;2023-09-19T03:38:39;100441.03;;;19.36;64.60
46045;BME280;31781;54.094;13.428;2023-09-19T03:40:43;100437.72;;;19.34;64.48
46045;BME280;31781;54.094;13.428;2023-09-19T03:42:45;100441.03;;;19.31;64.45
46045;BME280;31781;54.094;13.428;2023-09-19T03:44:47;100439.66;;;19.28;64.70
46045;BME280;31781;54.094;13.428;2023-09-19T03:46:49;100441.00;;;19.26;64.79
46045;BME280;31781;54.094;13.428;2023-09-19T03:48:51;100441.28;;;19.24;65.19
46045;BME280;31781;54.094;13.428;2023-09-19T03:50:53;100444.59;;;19.21;65.19
46045;BME280;31781;54.094;13.428;2023-09-19T03:52:56;100436.31;;;19.16;65.12
46045;BME280;31781;54.094;13.428;2023-09-19T03:54:58;100443.22;;;19.14;65.03
46045;BME280;31781;54.094;13.428;2023-09-19T03:57:01;100448.16;;;19.12;65.36
46045;BME280;31781;54.094;13.428;2023-09-19T03:59:03;100449.78;;;19.08;65.19
46045;BME280;31781;54.094;13.428;2023-09-19T04:01:05;100460.00;;;19.07;65.04
46045;BME280;31781;54.094;13.428;2023-09-19T04:03:07;100459.44;;;19.05;65.02
46045;BME280;31781;54.094;13.428;2023-09-19T04:05:10;100461.63;;;19.03;65.67
46045;BME280;31781;54.094;13.428;2023-09-19T04:07:12;100470.44;;;19.00;65.25
46045;BME280;31781;54.094;13.428;2023-09-19T04:09:15;100454.19;;;18.99;65.45
46045;BME280;31781;54.094;13.428;2023-09-19T04:11:18;100449.22;;;18.95;65.46
46045;BME280;31781;54.094;13.428;2023-09-19T04:13:21;100466.88;;;18.94;65.49
46045;BME280;31781;54.094;13.428;2023-09-19T04:15:24;100467.13;;;18.93;65.65
46045;BME280;31781;54.094;13.428;2023-09-19T04:17:26;100464.09;;;18.89;65.88
46045;BME280;31781;54.094;13.428;2023-09-19T04:19:28;100464.38;;;18.88;66.19
46045;BME280;31781;54.094;13.428;2023-09-19T04:21:30;100471.22;;;18.85;66.06
46045;BME280;31781;54.094;13.428;2023-09-19T04:23:32;100463.50;;;18.82;65.96
46045;BME280;31781;54.094;13.428;2023-09-19T04:25:35;100472.88;;;18.81;66.01
46045;BME280;31781;54.094;13.428;2023-09-19T04:27:37;100478.38;;;18.81;65.84
46045;BME280;31781;54.094;13.428;2023-09-19T04:29:40;100472.56;;;18.78;66.03
46045;BME280;31781;54.094;13.428;2023-09-19T04:31:42;100479.47;;;18.75;66.42
46045;BME280;31781;54.094;13.428;2023-09-19T04:33:44;100481.38;;;18.75;66.24
46045;BME280;31781;54.094;13.428;2023-09-19T04:35:49;100470.06;;;18.71;66.47
46045;BME280;31781;54.094;13.428;2023-09-19T04:37:50;100476.69;;;18.70;66.49
46045;BME280;31781;54.094;13.428;2023-09-19T04:39:52;100481.66;;;18.68;66.21
46045;BME280;31781;54.094;13.428;2023-09-19T04:41:54;100484.94;;;18.65;66.78
46045;BME280;31781;54.094;13.428;2023-09-19T04:43:56;100481.63;;;18.63;66.96
46045;BME280;31781;54.094;13.428;2023-09-19T04:45:59;100489.34;;;18.61;66.71
46045;BME280;31781;54.094;13.428;2023-09-19T04:48:01;100496.22;;;18.59;66.93
46045;BME280;31781;54.094;13.428;2023-09-19T04:50:04;100507.50;;;18.57;66.67
46045;BME280;31781;54.094;13.428;2023-09-19T04:52:06;100500.31;;;18.56;66.83
46045;BME280;31781;54.094;13.428;2023-09-19T04:54:08;100501.41;;;18.55;67.06
46045;BME280;31781;54.094;13.428;2023-09-19T04:56:10;100506.38;;;18.53;67.51
46045;BME280;31781;54.094;13.428;2023-09-19T04:58:11;100507.44;;;18.52;66.78
46045;BME280;31781;54.094;13.428;2023-09-19T05:00:14;100517.91;;;18.50;66.91
46045;BME280;31781;54.094;13.428;2023-09-19T05:02:18;100511.81;;;18.48;67.17
46045;BME280;31781;54.094;13.428;2023-09-19T05:04:20;100515.69;;;18.47;67.43
46045;BME280;31781;54.094;13.428;2023-09-19T05:06:23;100511.50;;;18.44;67.19
46045;BME280;31781;54.094;13.428;2023-09-19T05:08:27;100518.13;;;18.43;67.61
46045;BME280;31781;54.094;13.428;2023-09-19T05:10:28;100523.91;;;18.42;67.32
46045;BME280;31781;54.094;13.428;2023-09-19T05:12:31;100528.03;;;18.39;67.30
46045;BME280;31781;54.094;13.428;2023-09-19T05:14:36;100524.69;;;18.37;67.71
46045;BME280;31781;54.094;13.428;2023-09-19T05:16:38;100521.38;;;18.35;67.75
46045;BME280;31781;54.094;13.428;2023-09-19T05:18:42;100523.31;;;18.35;67.74
46045;BME280;31781;54.094;13.428;2023-09-19T05:20:44;100524.69;;;18.32;67.98
46045;BME280;31781;54.094;13.428;2023-09-19T05:22:45;100523.00;;;18.31;67.94
46045;BME280;31781;54.094;13.428;2023-09-19T05:24:47;100531.53;;;18.30;67.62
46045;BME280;31781;54.094;13.428;2023-09-19T05:26:49;100524.38;;;18.29;67.74
46045;BME280;31781;54.094;13.428;2023-09-19T05:28:51;100529.88;;;18.29;67.79
46045;BME280;31781;54.094;13.428;2023-09-19T05:30:53;100526.56;;;18.27;68.49
46045;BME280;31781;54.094;13.428;2023-09-19T05:32:55;100530.13;;;18.27;67.75
46045;BME280;31781;54.094;13.428;2023-09-19T05:34:58;100531.22;;;18.26;67.67
46045;BME280;31781;54.094;13.428;2023-09-19T05:37:00;100535.91;;;18.26;68.20
46045;BME280;31781;54.094;13.428;2023-09-19T05:39:03;100547.19;;;18.24;67.90
46045;BME280;31781;54.094;13.428;2023-09-19T05:41:05;100551.03;;;18.23;68.06
46045;BME280;31781;54.094;13.428;2023-09-19T05:43:07;100552.41;;;18.26;68.09
46045;BME280;31781;54.094;13.428;2023-09-19T05:45:10;100554.09;;;18.27;67.76
46045;BME280;31781;54.094;13.428;2023-09-19T05:47:11;100548.03;;;18.30;67.94
46045;BME280;31781;54.094;13.428;2023-09-19T05:49:13;100544.75;;;18.33;68.00
46045;BME280;31781;54.094;13.428;2023-09-19T05:51:18;100549.75;;;18.36;68.00
46045;BME280;31781;54.094;13.428;2023-09-19T05:53:20;100541.78;;;18.39;67.67
46045;BME280;31781;54.094;13.428;2023-09-19T05:55:21;100543.19;;;18.42;67.79
46045;BME280;31781;54.094;13.428;2023-09-19T05:57:23;100547.91;;;18.46;67.60
46045;BME280;31781;54.094;13.428;2023-09-19T05:59:25;100557.31;;;18.51;67.02
46045;BME280;31781;54.094;13.428;2023-09-19T06:01:27;100557.63;;;18.54;67.08
46045;BME280;31781;54.094;13.428;2023-09-19T06:03:29;100552.41;;;18.58;67.19
46045;BME280;31781;54.094;13.428;2023-09-19T06:05:31;100557.13;;;18.62;67.15
46045;BME280;31781;54.094;13.428;2023-09-19T06:07:34;100561.00;;;18.66;66.71
46045;BME280;31781;54.094;13.428;2023-09-19T06:09:36;100563.25;;;18.69;66.74
46045;BME280;31781;54.094;13.428;2023-09-19T06:11:38;100566.00;;;18.74;66.26
46045;BME280;31781;54.094;13.428;2023-09-19T06:13:40;100574.31;;;18.79;66.19
46045;BME280;31781;54.094;13.428;2023-09-19T06:15:42;100568.00;;;18.84;66.16
46045;BME280;31781;54.094;13.428;2023-09-19T06:17:47;100580.16;;;18.88;65.75
46045;BME280;31781;54.094;13.428;2023-09-19T06:19:49;100581.00;;;18.93;65.77
46045;BME280;31781;54.094;13.428;2023-09-19T06:21:52;100572.19;;;18.96;65.43
46045;BME280;31781;54.094;13.428;2023-09-19T06:23:55;100580.50;;;19.02;65.30
46045;BME280;31781;54.094;13.428;2023-09-19T06:25:57;100592.91;;;19.04;64.70
46045;BME280;31781;54.094;13.428;2023-09-19T06:27:59;100583.00;;;19.08;64.82
46045;BME280;31781;54.094;13.428;2023-09-19T06:30:01;100596.53;;;19.10;64.77
46045;BME280;31781;54.094;13.428;2023-09-19T06:32:07;100591.56;;;19.12;64.18
46045;BME280;31781;54.094;13.428;2023-09-19T06:34:09;100594.91;;;19.14;63.95
46045;BME280;31781;54.094;13.428;2023-09-19T06:36:14;100607.06;;;19.18;64.27
46045;BME280;31781;54.094;13.428;2023-09-19T06:38:17;100608.16;;;19.17;64.30
46045;BME280;31781;54.094;13.428;2023-09-19T06:40:20;100606.75;;;19.19;63.72
46045;BME280;31781;54.094;13.428;2023-09-19T06:42:23;100606.22;;;19.17;63.42
46045;BME280;31781;54.094;13.428;2023-09-19T06:44:27;100607.06;;;19.18;63.40
46045;BME280;31781;54.094;13.428;2023-09-19T06:46:29;100623.84;;;19.16;63.24
46045;BME280;31781;54.094;13.428;2023-09-19T06:48:31;100629.63;;;19.15;63.33
46045;BME280;31781;54.094;13.428;2023-09-19T06:50:34;100630.75;;;19.14;62.99
46045;BME280;31781;54.094;13.428;2023-09-19T06:52:36;100639.81;;;19.14;63.44
46045;BME280;31781;54.094;13.428;2023-09-19T06:54:40;100628.50;;;19.11;63.09
46045;BME280;31781;54.094;13.428;2023-09-19T06:56:43;100634.88;;;19.16;62.96
46045;BME280;31781;54.094;13.428;2023-09-19T06:58:45;100633.75;;;19.12;62.71
46045;BME280;31781;54.094;13.428;2023-09-19T07:00:47;100639.03;;;19.14;62.30
46045;BME280;31781;54.094;13.428;2023-09-19T07:02:56;100642.34;;;19.16;62.94
46045;BME280;31781;54.094;13.428;2023-09-19T07:04:58;100642.91;;;19.18;62.31
46045;BME280;31781;54.094;13.428;2023-09-19T07:07:00;100649.53;;;19.22;62.94
46045;BME280;31781;54.094;13.428;2023-09-19T07:09:02;100647.59;;;19.22;62.84
46045;BME280;31781;54.094;13.428;2023-09-19T07:11:04;100643.75;;;19.23;62.75
46045;BME280;31781;54.094;13.428;2023-09-19T07:13:08;100653.69;;;19.29;62.62
46045;BME280;31781;54.094;13.428;2023-09-19T07:15:11;100652.91;;;19.34;62.88
46045;BME280;31781;54.094;13.428;2023-09-19T07:17:14;100644.91;;;19.37;62.57
46045;BME280;31781;54.094;13.428;2023-09-19T07:19:16;100642.50;;;19.46;61.97
46045;BME280;31781;54.094;13.428;2023-09-19T07:21:18;100647.22;;;19.51;61.84
46045;BME280;31781;54.094;13.428;2023-09-19T07:23:22;100645.03;;;19.58;61.21
46045;BME280;31781;54.094;13.428;2023-09-19T07:25:23;100640.38;;;19.68;60.70
46045;BME280;31781;54.094;13.428;2023-09-19T07:27:25;100648.38;;;19.75;59.46
46045;BME280;31781;54.094;13.428;2023-09-19T07:29:29;100659.75;;;19.83;59.01
46045;BME280;31781;54.094;13.428;2023-09-19T07:31:31;100652.59;;;19.87;58.45
46045;BME280;31781;54.094;13.428;2023-09-19T07:33:33;100647.88;;;19.93;56.26
46045;BME280;31781;54.094;13.428;2023-09-19T07:35:35;100639.63;;;19.98;56.24
46045;BME280;31781;54.094;13.428;2023-09-19T07:37:36;100658.69;;;20.05;55.14
46045;BME280;31781;54.094;13.428;2023-09-19T07:39:43;100645.97;;;20.09;55.41
46045;BME280;31781;54.094;13.428;2023-09-19T07:41:44;100676.66;;;20.17;53.77
46045;BME280;31781;54.094;13.428;2023-09-19T07:43:47;100677.75;;;20.16;53.34
46045;BME280;31781;54.094;13.428;2023-09-19T07:45:50;100667.81;;;20.20;52.64
46045;BME280;31781;54.094;13.428;2023-09-19T07:47:52;100659.25;;;20.22;52.31
46045;BME280;31781;54.094;13.428;2023-09-19T07:49:55;100660.34;;;20.26;51.34
46045;BME280;31781;54.094;13.428;2023-09-19T07:51:56;100662.06;;;20.32;50.80
46045;BME280;31781;54.094;13.428;2023-09-19T07:53:59;100672.56;;;20.35;49.61
46045;BME280;31781;54.094;13.428;2023-09-19T07:56:02;100683.34;;;20.42;48.58
46045;BME280;31781;54.094;13.428;2023-09-19T07:58:04;100681.13;;;20.44;48.12
46045;BME280;31781;54.094;13.428;2023-09-19T08:00:08;100691.09;;;20.50;47.39
46045;BME280;31781;54.094;13.428;2023-09-19T08:02:11;100688.88;;;20.52;47.87
46045;BME280;31781;54.094;13.428;2023-09-19T08:04:16;100694.16;;;20.58;47.40
46045;BME280;31781;54.094;13.428;2023-09-19T08:06:20;100703.81;;;20.61;47.73
46045;BME280;31781;54.094;13.428;2023-09-19T08:08:22;100708.53;;;20.65;47.67
46045;BME280;31781;54.094;13.428;2023-09-19T08:10:25;100706.56;;;20.66;46.63
46045;BME280;31781;54.094;13.428;2023-09-19T08:12:27;100697.44;;;20.70;46.45
46045;BME280;31781;54.094;13.428;2023-09-19T08:14:29;100706.00;;;20.74;46.49
46045;BME280;31781;54.094;13.428;2023-09-19T08:16:32;100720.09;;;20.77;46.09
46045;BME280;31781;54.094;13.428;2023-09-19T08:18:36;100705.47;;;20.82;45.95
46045;BME280;31781;54.094;13.428;2023-09-19T08:20:38;100711.84;;;20.87;46.27
46045;BME280;31781;54.094;13.428;2023-09-19T08:22:43;100710.44;;;20.90;46.23
46045;BME280;31781;54.094;13.428;2023-09-19T08:24:45;100722.59;;;20.94;45.60
46045;BME280;31781;54.094;13.428;2023-09-19T08:26:47;100735.59;;;20.99;45.84
46045;BME280;31781;54.094;13.428;2023-09-19T08:28:49;100718.97;;;21.04;45.61
46045;BME280;31781;54.094;13.428;2023-09-19T08:30:51;100718.16;;;21.08;45.84
46045;BME280;31781;54.094;13.428;2023-09-19T08:32:56;100718.72;;;21.15;46.42
46045;BME280;31781;54.094;13.428;2023-09-19T08:35:00;100722.03;;;21.22;45.55
46045;BME280;31781;54.094;13.428;2023-09-19T08:37:03;100726.16;;;21.30;45.83
46045;BME280;31781;54.094;13.428;2023-09-19T08:39:06;100720.91;;;21.33;44.58
46045;BME280;31781;54.094;13.428;2023-09-19T08:41:09;100722.53;;;21.40;44.62
46045;BME280;31781;54.094;13.428;2023-09-19T08:43:11;100720.31;;;21.47;45.03
46045;BME280;31781;54.094;13.428;2023-09-19T08:45:14;100718.91;;;21.54;45.39
46045;BME280;31781;54.094;13.428;2023-09-19T08:47:25;100718.59;;;21.61;44.72
46045;BME280;31781;54.094;13.428;2023-09-19T08:49:37;100721.06;;;21.67;44.97
46045;BME280;31781;54.094;13.428;2023-09-19T08:51:46;100722.41;;;21.75;44.02
46045;BME280;31781;54.094;13.428;2023-09-19T08:53:52;100729.84;;;21.84;43.51
46045;BME280;31781;54.094;13.428;2023-09-19T08:55:56;100717.69;;;21.91;43.10
46045;BME280;31781;54.094;13.428;2023-09-19T08:58:03;100727.34;;;21.98;43.16
46045;BME280;31781;54.094;13.428;2023-09-19T09:00:09;100719.88;;;21.99;42.14
46045;BME280;31781;54.094;13.428;2023-09-19T09:02:14;100723.16;;;22.06;42.46
46045;BME280;31781;54.094;13.428;2023-09-19T09:04:17;100727.78;;;22.15;42.90
46045;BME280;31781;54.094;13.428;2023-09-19T09:06:22;100731.91;;;22.23;43.94
46045;BME280;31781;54.094;13.428;2023-09-19T09:08:28;100725.19;;;22.29;43.01
46045;BME280;31781;54.094;13.428;2023-09-19T09:10:33;100717.13;;;22.32;42.40
46045;BME280;31781;54.094;13.428;2023-09-19T09:12:35;100722.16;;;22.30;40.89
46045;BME280;31781;54.094;13.428;2023-09-19T09:14:37;100726.28;;;22.33;41.11
46045;BME280;31781;54.094;13.428;2023-09-19T09:16:39;100732.66;;;22.39;41.37
46045;BME280;31781;54.094;13.428;2023-09-19T09:18:42;100723.16;;;22.45;40.08
46045;BME280;31781;54.094;13.428;2023-09-19T09:20:44;100732.84;;;22.47;40.64
46045;BME280;31781;54.094;13.428;2023-09-19T09:22:53;100729.75;;;22.54;41.11
46045;BME280;31781;54.094;13.428;2023-09-19T09:24:58;100741.34;;;22.61;40.13
46045;BME280;31781;54.094;13.428;2023-09-19T09:27:00;100729.75;;;22.54;39.74
46045;BME280;31781;54.094;13.428;2023-09-19T09:29:01;100733.31;;;22.59;39.98
46045;BME280;31781;54.094;13.428;2023-09-19T09:31:03;100738.84;;;22.59;40.35
46045;BME280;31781;54.094;13.428;2023-09-19T09:33:11;100733.88;;;22.61;41.28
46045;BME280;31781;54.094;13.428;2023-09-19T09:35:15;100734.66;;;22.67;40.91
46045;BME280;31781;54.094;13.428;2023-09-19T09:37:17;100747.38;;;22.73;40.25
46045;BME280;31781;54.094;13.428;2023-09-19T09:39:30;100744.28;;;22.79;41.77
46045;BME280;31781;54.094;13.428;2023-09-19T09:41:37;100762.81;;;22.84;40.26
46045;BME280;31781;54.094;13.428;2023-09-19T09:43:40;100772.22;;;22.88;40.56
46045;BME280;31781;54.094;13.428;2023-09-19T09:45:44;100760.50;;;22.96;40.54
46045;BME280;31781;54.094;13.428;2023-09-19T09:47:47;100765.19;;;23.01;40.38
46045;BME280;31781;54.094;13.428;2023-09-19T09:49:50;100763.25;;;23.01;39.68
46045;BME280;31781;54.094;13.428;2023-09-19T09:51:59;100759.03;;;23.09;40.86
46045;BME280;31781;54.094;13.428;2023-09-19T09:54:10;100754.06;;;23.06;39.47
46045;BME280;31781;54.094;13.428;2023-09-19T09:56:12;100763.00;;;22.98;40.24
46045;BME280;31781;54.094;13.428;2023-09-19T09:58:19;100758.28;;;22.98;39.99
46045;BME280;31781;54.094;13.428;2023-09-19T10:00:22;100749.16;;;22.93;40.22
46045;BME280;31781;54.094;13.428;2023-09-19T10:02:26;100744.72;;;22.92;40.46
46045;BME280;31781;54.094;13.428;2023-09-19T10:04:29;100753.88;;;22.92;40.23
46045;BME280;31781;54.094;13.428;2023-09-19T10:06:40;100752.78;;;22.93;42.53
46045;BME280;31781;54.094;13.428;2023-09-19T10:08:57;100751.09;;;22.92;42.37
46045;BME280;31781;54.094;13.428;2023-09-19T10:10:59;100755.28;;;22.90;40.89
46045;BME280;31781;54.094;13.428;2023-09-19T10:13:02;100752.28;;;22.86;39.88
46045;BME280;31781;54.094;13.428;2023-09-19T10:15:13;100744.78;;;22.87;41.50
46045;BME280;31781;54.094;13.428;2023-09-19T10:17:16;100746.72;;;22.86;40.09
46045;BME280;31781;54.094;13.428;2023-09-19T10:19:23;100748.09;;;22.89;40.46
46045;BME280;31781;54.094;13.428;2023-09-19T10:21:31;100747.84;;;22.85;40.64
46045;BME280;31781;54.094;13.428;2023-09-19T10:23:34;100760.03;;;22.84;40.53
46045;BME280;31781;54.094;13.428;2023-09-19T10:25:38;100753.38;;;22.85;40.77
46045;BME280;31781;54.094;13.428;2023-09-19T10:27:41;100747.84;;;22.85;41.83
46045;BME280;31781;54.094;13.428;2023-09-19T10:29:49;100752.28;;;22.86;41.84
46045;BME280;31781;54.094;13.428;2023-09-19T10:31:54;100755.91;;;22.82;41.23
46045;BME280;31781;54.094;13.428;2023-09-19T10:33:57;100748.19;;;22.78;40.48
46045;BME280;31781;54.094;13.428;2023-09-19T10:36:00;100756.53;;;22.73;40.25
46045;BME280;31781;54.094;13.428;2023-09-19T10:38:04;100755.75;;;22.68;40.69